Iowa Falls, IA

2:03 PM CST on December 05, 2019 (GMT -0600)
Iowa Falls Municipal

Weather History for KIFA - October, 2019

Change the Weather History Date:

Saturday, October 12, 2019

  Actual Average Record
Temperature  
Mean Temperature 38 °F -  
Max Temperature 47 °F 62 °F 89 °F (1975)
Min Temperature 29 °F 39 °F 22 °F (1959)
Degree Days  
Heating Degree Days 27    
Moisture  
Dew Point 25 °F    
Average Humidity 63    
Maximum Humidity 78    
Minimum Humidity 30    
Precipitation  
Precipitation 0.00 in - - ()
Sea Level Pressure  
Sea Level Pressure 29.86 in    
Wind  
Wind Speed 14 mph ()    
Max Wind Speed 30 mph    
Max Gust Speed 41 mph    
Visibility 8.0 miles    
Events      
Averages and records for this station are not official NWS values.
T = Trace of Precipitation, MM = Missing Value Source: Averaged Metar Reports

Daily Weather History Graph

Daily Weather History Graph

Search for Another Location

Airport or City:

Astronomy

Oct. 12, 2019 Rise Set
Actual Time 7:22 AM CDT 6:36 PM CDT
Civil Twilight 6:54 AM CDT 7:04 PM CDT
Nautical Twilight 6:21 AM CDT 7:36 PM CDT
Astronomical Twilight 5:48 AM CDT 8:09 PM CDT
Moon 6:34 PM CDT (10/12) 5:56 AM CDT (10/12)
Length of Visible Light 12h 10m
Length of Day
11h 13m
Waxing Gibbous, 99% of the Moon is Illuminated
Oct 12
Waxing Gibbous
Oct 13
Full
Oct 21
Last Quarter
Oct 27
New
Nov 4
First Quarter

Hourly Weather History & Observations

Time (CDT) Temp. Windchill Dew Point Humidity Pressure Visibility Wind Dir Wind Speed Gust Speed Precip Events Conditions
12:15 AM 33.8 °F 23.5 °F 21.0 °F 60% 30.00 in 10.0 mi WSW 16.1 mph - N/A   Clear
12:35 AM 32.9 °F 24.7 °F 21.6 °F 63% 29.99 in 10.0 mi SW 10.4 mph - N/A   Clear
12:55 AM 32.4 °F 23.5 °F 21.7 °F 65% 29.99 in 10.0 mi SW 11.5 mph - N/A   Clear
1:15 AM 32.0 °F 22.5 °F 21.9 °F 66% 29.98 in 7.0 mi SW 12.7 mph - N/A   Clear
1:35 AM 32.0 °F 23.0 °F 21.9 °F 66% 29.97 in 7.0 mi SW 11.5 mph - N/A   Clear
1:55 AM 31.8 °F 22.3 °F 21.6 °F 66% 29.97 in 7.0 mi SW 12.7 mph 18.4 mph N/A   Clear
2:15 AM 31.5 °F 21.8 °F 21.7 °F 67% 29.97 in 10.0 mi SW 12.7 mph - N/A   Clear
2:35 AM 31.1 °F 21.9 °F 21.7 °F 68% 29.96 in 10.0 mi SW 11.5 mph - N/A   Clear
2:55 AM 30.9 °F 21.2 °F 21.7 °F 69% 29.95 in 7.0 mi SW 12.7 mph 18.4 mph N/A   Clear
3:15 AM 30.9 °F 21.7 °F 21.2 °F 67% 29.95 in 10.0 mi SW 11.5 mph 16.1 mph N/A   Clear
3:35 AM 30.6 °F 20.7 °F 21.6 °F 69% 29.94 in 10.0 mi SW 12.7 mph 17.3 mph N/A   Clear
3:55 AM 30.4 °F 21.0 °F 21.6 °F 70% 29.94 in 10.0 mi SW 11.5 mph 16.1 mph N/A   Clear
4:15 AM 30.4 °F 21.0 °F 21.4 °F 69% 29.94 in 10.0 mi SW 11.5 mph - N/A   Clear
4:35 AM 30.2 °F 20.2 °F 21.7 °F 71% 29.93 in 10.0 mi SW 12.7 mph - N/A   Clear
4:55 AM 30.2 °F 20.8 °F 21.7 °F 71% 29.92 in 7.0 mi SSW 11.5 mph 18.4 mph N/A   Clear
5:15 AM 30.0 °F 20.5 °F 21.7 °F 71% 29.92 in 7.0 mi SSW 11.5 mph - N/A   Clear
5:35 AM 29.8 °F 20.3 °F 21.9 °F 72% 29.92 in 7.0 mi SW 11.5 mph - N/A   Clear
5:55 AM 30.2 °F 19.8 °F 21.9 °F 71% 29.92 in 7.0 mi SW 13.8 mph 17.3 mph N/A   Clear
6:35 AM 30.2 °F 20.8 °F 21.9 °F 71% 29.90 in 7.0 mi SSW 11.5 mph - N/A   Clear
6:55 AM 30.0 °F 20.0 °F 22.1 °F 72% 29.89 in 7.0 mi SW 12.7 mph 18.4 mph N/A   Clear
7:15 AM 30.0 °F 19.1 °F 22.1 °F 72% 29.88 in 7.0 mi SSW 15.0 mph - N/A   Clear
7:35 AM 30.2 °F 19.8 °F 22.3 °F 72% 29.87 in 7.0 mi SW 13.8 mph 19.6 mph N/A   Clear
7:55 AM 31.1 °F 20.9 °F 22.6 °F 71% 29.87 in 4.0 mi SW 13.8 mph - N/A   Haze
8:15 AM 32.0 °F 21.6 °F 22.8 °F 69% 29.87 in 5.0 mi SW 15.0 mph 23.0 mph N/A   Haze
8:35 AM 32.9 °F 22.4 °F 22.8 °F 66% 29.86 in 7.0 mi SW 16.1 mph 23.0 mph N/A   Clear
8:55 AM 34.5 °F 23.1 °F 22.8 °F 62% 29.86 in 5.0 mi SW 20.7 mph 24.2 mph N/A   Haze
9:15 AM 36.0 °F 25.3 °F 22.3 °F 58% 29.86 in 7.0 mi SW 19.6 mph 27.6 mph N/A   Clear
9:35 AM 37.6 °F 28.1 °F 22.6 °F 55% 29.84 in 5.0 mi SW 17.3 mph 28.8 mph N/A   Haze
9:55 AM 39.6 °F 30.3 °F 22.5 °F 50% 29.83 in 5.0 mi SW 18.4 mph 26.5 mph N/A   Haze
10:15 AM 41.4 °F 31.4 °F 22.1 °F 46% 29.84 in 7.0 mi WSW 24.2 mph 28.8 mph N/A   Clear
10:35 AM 42.8 °F 33.5 °F 21.9 °F 44% 29.84 in 5.0 mi SW 23.0 mph 35.7 mph N/A   Haze
10:55 AM 43.0 °F 33.1 °F 22.3 °F 44% 29.82 in 5.0 mi WSW 26.5 mph 38.0 mph N/A   Haze
11:15 AM 43.9 °F 35.2 °F 23.0 °F 44% 29.81 in 10.0 mi SW 21.9 mph 34.5 mph N/A   Clear
11:35 AM 45.1 °F 35.8 °F 22.5 °F 41% 29.81 in 7.0 mi WSW 27.6 mph 33.4 mph N/A   Clear
11:55 AM 43.7 °F 34.7 °F 22.5 °F 43% 29.81 in 10.0 mi WSW 23.0 mph 31.1 mph N/A   Clear
12:15 PM 44.4 °F 35.7 °F 22.6 °F 42% 29.80 in 10.0 mi WSW 23.0 mph 28.8 mph N/A   Clear
12:35 PM 45.5 °F 38.3 °F 21.2 °F 38% 29.79 in 10.0 mi WSW 17.3 mph 31.1 mph N/A   Clear
12:55 PM 46.0 °F 37.0 °F 17.4 °F 32% 29.79 in 10.0 mi WSW 27.6 mph 36.8 mph N/A   Mostly Cloudy
1:15 PM 47.1 °F - 18.3 °F 32% 29.79 in 10.0 mi WSW 21.9 mph 32.2 mph N/A   Mostly Cloudy
1:35 PM 47.8 °F - 17.2 °F 30% 29.78 in 7.0 mi WSW 24.2 mph 34.5 mph N/A   Mostly Cloudy
1:55 PM 46.6 °F - 20.8 °F 36% 29.79 in 7.0 mi West 29.9 mph 41.4 mph N/A   Overcast
2:35 PM 45.9 °F 36.4 °F 23.7 °F 42% 29.79 in 5.0 mi West 29.9 mph 41.4 mph N/A   Haze
2:55 PM 45.0 °F 35.4 °F 26.2 °F 48% 29.79 in 5.0 mi West 28.8 mph 35.7 mph N/A   Haze
3:15 PM 43.9 °F 35.0 °F 28.6 °F 55% 29.79 in 7.0 mi West 23.0 mph 31.1 mph N/A   Overcast
3:35 PM 43.7 °F 36.0 °F 27.7 °F 53% 29.79 in 7.0 mi WNW 17.3 mph 24.2 mph N/A   Overcast
3:55 PM 41.9 °F 34.6 °F 28.9 °F 60% 29.79 in 5.0 mi WNW 13.8 mph 23.0 mph N/A   Haze
4:15 PM 41.2 °F 33.4 °F 30.0 °F 65% 29.78 in 7.0 mi NW 15.0 mph - N/A   Overcast
4:35 PM 40.3 °F 33.4 °F 30.0 °F 67% 29.79 in 7.0 mi WNW 11.5 mph - N/A   Overcast
4:55 PM 40.1 °F 34.7 °F 29.7 °F 66% 29.78 in 7.0 mi WNW 8.1 mph - N/A   Overcast
5:15 PM 40.1 °F 34.1 °F 29.3 °F 65% 29.79 in 10.0 mi NW 9.2 mph - N/A   Overcast
5:35 PM 39.7 °F 32.7 °F 29.5 °F 67% 29.80 in 10.0 mi WNW 11.5 mph - N/A   Overcast
5:55 PM 39.4 °F 30.4 °F 30.2 °F 70% 29.81 in 10.0 mi WNW 17.3 mph 23.0 mph N/A   Overcast
6:15 PM 38.8 °F 29.4 °F 30.2 °F 71% 29.81 in 10.0 mi West 18.4 mph 23.0 mph N/A   Overcast
6:35 PM 38.7 °F 29.1 °F 30.2 °F 72% 29.82 in 10.0 mi WNW 18.4 mph 24.2 mph N/A   Overcast
6:55 PM 38.7 °F 30.5 °F 30.6 °F 73% 29.82 in 10.0 mi West 13.8 mph 24.2 mph N/A   Overcast
7:15 PM 38.5 °F 28.3 °F 30.2 °F 72% 29.82 in 10.0 mi West 20.7 mph 26.5 mph N/A   Overcast
7:35 PM 37.9 °F 28.9 °F 30.2 °F 74% 29.83 in 10.0 mi West 16.1 mph 23.0 mph N/A   Overcast
7:55 PM 37.4 °F 27.2 °F 30.0 °F 75% 29.84 in 10.0 mi West 19.6 mph 26.5 mph N/A   Overcast
8:15 PM 37.4 °F 28.9 °F 29.7 °F 74% 29.84 in 10.0 mi WNW 13.8 mph 24.2 mph N/A   Overcast
8:35 PM 37.4 °F 27.2 °F 29.7 °F 74% 29.84 in 10.0 mi West 19.6 mph 25.3 mph N/A   Overcast
8:55 PM 37.2 °F 28.7 °F 29.5 °F 74% 29.84 in 10.0 mi West 13.8 mph 23.0 mph N/A   Overcast
9:15 PM 37.4 °F 28.5 °F 29.3 °F 73% 29.84 in 7.0 mi WNW 15.0 mph - N/A   Overcast
9:35 PM 37.2 °F 28.3 °F 29.3 °F 73% 29.84 in 7.0 mi West 15.0 mph 21.9 mph N/A   Overcast
9:55 PM 36.9 °F 27.1 °F 29.1 °F 74% 29.84 in 7.0 mi West 17.3 mph 23.0 mph N/A   Overcast
10:15 PM 36.5 °F 26.7 °F 28.9 °F 74% 29.84 in 7.0 mi West 17.3 mph 25.3 mph N/A   Overcast
10:35 PM 36.5 °F 28.2 °F 29.1 °F 75% 29.84 in 10.0 mi West 12.7 mph 23.0 mph N/A   Overcast
10:55 PM 36.1 °F 28.2 °F 29.3 °F 76% 29.83 in 10.0 mi West 11.5 mph - N/A   Overcast
11:15 PM 36.0 °F 27.5 °F 29.8 °F 78% 29.82 in 5.0 mi West 12.7 mph 19.6 mph N/A   Haze
11:35 PM 36.1 °F 27.3 °F 29.7 °F 77% 29.82 in 10.0 mi West 13.8 mph 19.6 mph N/A   Overcast
11:55 PM 36.5 °F 27.0 °F 29.1 °F 75% 29.81 in 10.0 mi West 16.1 mph 19.6 mph N/A   Overcast